createdAt,value
2023-05-14T00:00:22.000Z,1015.19
2023-05-14T00:01:21.810Z,1015.21
2023-05-14T00:02:21.939Z,1015.17
2023-05-14T00:03:22.036Z,1015.18
2023-05-14T00:04:21.850Z,1015.17
2023-05-14T00:05:21.776Z,1015.18
2023-05-14T00:06:21.758Z,1015.16
2023-05-14T00:07:21.752Z,1015.15
2023-05-14T00:08:21.745Z,1015.14
2023-05-14T00:09:21.877Z,1015.14
2023-05-14T00:10:22.161Z,1015.15
2023-05-14T00:11:21.711Z,1015.12
2023-05-14T00:12:21.694Z,1015.12
2023-05-14T00:13:21.690Z,1015.09
2023-05-14T00:14:21.679Z,1015.06
2023-05-14T00:15:21.697Z,1015.05
2023-05-14T00:16:21.707Z,1015.03
2023-05-14T00:17:21.672Z,1015.02
2023-05-14T00:18:21.634Z,1015.03
2023-05-14T00:19:21.870Z,1015.03
2023-05-14T00:20:21.854Z,1015.02
2023-05-14T00:21:21.635Z,1014.99
2023-05-14T00:22:21.603Z,1015.00
2023-05-14T00:23:21.591Z,1014.98
2023-05-14T00:24:21.568Z,1014.98
2023-05-14T00:25:21.562Z,1014.99
2023-05-14T00:26:21.583Z,1014.98
2023-05-14T00:27:21.540Z,1014.97
2023-05-14T00:28:21.524Z,1014.95
2023-05-14T00:29:21.518Z,1014.95
2023-05-14T00:30:21.629Z,1014.95
2023-05-14T00:31:21.577Z,1014.96
2023-05-14T00:32:21.634Z,1014.97
2023-05-14T00:33:21.477Z,1014.97
2023-05-14T00:34:21.463Z,1014.97
2023-05-14T00:35:21.575Z,1014.96
2023-05-14T00:36:21.442Z,1014.97
2023-05-14T00:37:21.451Z,1014.98
2023-05-14T00:38:21.545Z,1014.97
2023-05-14T00:39:21.421Z,1014.97
2023-05-14T00:40:21.674Z,1014.99
2023-05-14T00:41:21.388Z,1015.01
2023-05-14T00:42:21.381Z,1014.99
2023-05-14T00:43:21.393Z,1014.97
2023-05-14T00:44:21.365Z,1014.96
2023-05-14T00:45:21.373Z,1014.93
2023-05-14T00:46:21.360Z,1014.92
2023-05-14T00:47:21.364Z,1014.93
2023-05-14T00:48:21.326Z,1014.92
2023-05-14T00:49:21.575Z,1014.95
2023-05-14T00:50:21.496Z,1014.97
2023-05-14T00:51:21.299Z,1014.98
2023-05-14T00:52:21.274Z,1014.97
2023-05-14T00:53:21.278Z,1014.97
2023-05-14T00:54:21.247Z,1014.95
2023-05-14T00:55:21.370Z,1014.94
2023-05-14T00:56:21.230Z,1014.96
2023-05-14T00:57:21.226Z,1014.97
2023-05-14T00:58:21.221Z,1014.99
2023-05-14T00:59:21.203Z,1014.97
2023-05-14T01:00:21.388Z,1014.92
2023-05-14T01:01:21.362Z,1014.88
2023-05-14T01:02:21.278Z,1014.85
2023-05-14T01:03:21.276Z,1014.83
2023-05-14T01:04:21.143Z,1014.82
2023-05-14T01:05:21.151Z,1014.82
2023-05-14T01:06:21.134Z,1014.82
2023-05-14T01:07:21.118Z,1014.81
2023-05-14T01:08:21.106Z,1014.82
2023-05-14T01:09:21.103Z,1014.83
2023-05-14T01:10:21.223Z,1014.83
2023-05-14T01:11:21.107Z,1014.85
2023-05-14T01:12:21.090Z,1014.85
2023-05-14T01:13:21.169Z,1014.84
2023-05-14T01:14:21.097Z,1014.82
2023-05-14T01:15:21.090Z,1014.80
2023-05-14T01:16:21.040Z,1014.77
2023-05-14T01:17:21.165Z,1014.75
2023-05-14T01:18:20.996Z,1014.74
2023-05-14T01:19:20.988Z,1014.72
2023-05-14T01:20:20.992Z,1014.73
2023-05-14T01:21:20.991Z,1014.73
2023-05-14T01:22:20.958Z,1014.75
2023-05-14T01:23:21.127Z,1014.75
2023-05-14T01:24:20.946Z,1014.75
2023-05-14T01:25:20.930Z,1014.75
2023-05-14T01:26:20.934Z,1014.79
2023-05-14T01:27:20.910Z,1014.81
2023-05-14T01:28:20.898Z,1014.85
2023-05-14T01:29:20.929Z,1014.90
2023-05-14T01:30:20.989Z,1014.91
2023-05-14T01:31:20.899Z,1014.89
2023-05-14T01:32:20.867Z,1014.88
2023-05-14T01:33:20.842Z,1014.89
2023-05-14T01:34:27.473Z,1014.88
2023-05-14T01:35:20.821Z,1014.83
2023-05-14T01:36:20.810Z,1014.81
2023-05-14T01:37:20.800Z,1014.80
2023-05-14T01:38:20.784Z,1014.77
2023-05-14T01:39:20.782Z,1014.77
2023-05-14T01:40:21.097Z,1014.76
2023-05-14T01:41:20.752Z,1014.76
2023-05-14T01:42:20.750Z,1014.73
2023-05-14T01:43:20.784Z,1014.79
2023-05-14T01:44:20.728Z,1014.75
2023-05-14T01:45:20.713Z,1014.71
2023-05-14T01:46:20.760Z,1014.71
2023-05-14T01:47:20.691Z,1014.73
2023-05-14T01:48:20.710Z,1014.68
2023-05-14T01:49:20.670Z,1014.73
2023-05-14T01:50:20.684Z,1014.70
2023-05-14T01:51:20.935Z,1014.70
2023-05-14T01:52:20.648Z,1014.72
2023-05-14T01:53:20.623Z,1014.71
2023-05-14T01:54:20.621Z,1014.73
2023-05-14T01:55:20.610Z,1014.72
2023-05-14T01:56:20.602Z,1014.73
2023-05-14T01:57:20.734Z,1014.72
2023-05-14T01:58:20.573Z,1014.73
2023-05-14T01:59:20.585Z,1014.72
2023-05-14T02:00:20.652Z,1014.72
2023-05-14T02:01:20.579Z,1014.68
2023-05-14T02:02:20.540Z,1014.68
2023-05-14T02:03:20.678Z,1014.68
2023-05-14T02:04:20.566Z,1014.68
2023-05-14T02:05:20.510Z,1014.68
2023-05-14T02:06:20.495Z,1014.70
2023-05-14T02:07:20.478Z,1014.69
2023-05-14T02:08:20.472Z,1014.69
2023-05-14T02:09:20.607Z,1014.70
2023-05-14T02:10:20.596Z,1014.70
2023-05-14T02:11:20.442Z,1014.69
2023-05-14T02:12:20.428Z,1014.67
2023-05-14T02:13:20.416Z,1014.66
2023-05-14T02:14:20.413Z,1014.66
2023-05-14T02:15:20.565Z,1014.63
2023-05-14T02:16:20.481Z,1014.62
2023-05-14T02:17:20.371Z,1014.62
2023-05-14T02:18:20.365Z,1014.62
2023-05-14T02:19:20.357Z,1014.63
2023-05-14T02:20:20.371Z,1014.63
2023-05-14T02:21:20.337Z,1014.63
2023-05-14T02:22:20.327Z,1014.64
2023-05-14T02:23:25.663Z,1014.64
2023-05-14T02:24:20.320Z,1014.65
2023-05-14T02:25:20.302Z,1014.64
2023-05-14T02:26:20.297Z,1014.65
2023-05-14T02:27:20.275Z,1014.66
2023-05-14T02:28:20.260Z,1014.67
2023-05-14T02:29:20.252Z,1014.66
2023-05-14T02:30:20.243Z,1014.64
2023-05-14T02:31:20.429Z,1014.61
2023-05-14T02:32:20.252Z,1014.61
2023-05-14T02:33:20.364Z,1014.61
2023-05-14T02:35:12.240Z,1014.61
2023-05-14T02:36:13.205Z,1014.61
2023-05-14T02:37:13.426Z,1014.60
2023-05-14T02:38:13.190Z,1014.59
2023-05-14T02:39:13.179Z,1014.58
2023-05-14T02:40:13.162Z,1014.58
2023-05-14T02:41:13.162Z,1014.57
2023-05-14T02:42:13.150Z,1014.57
2023-05-14T02:43:13.281Z,1014.57
2023-05-14T02:44:13.125Z,1014.55
2023-05-14T02:45:13.146Z,1014.53
2023-05-14T02:46:13.125Z,1014.53
2023-05-14T02:47:13.131Z,1014.53
2023-05-14T02:48:13.188Z,1014.53
2023-05-14T02:49:13.087Z,1014.53
2023-05-14T02:50:13.073Z,1014.53
2023-05-14T02:51:13.064Z,1014.52
2023-05-14T02:52:13.041Z,1014.51
2023-05-14T02:53:13.039Z,1014.51
2023-05-14T02:54:13.055Z,1014.51
2023-05-14T02:55:13.017Z,1014.50
2023-05-14T02:56:12.997Z,1014.49
2023-05-14T02:57:12.991Z,1014.48
2023-05-14T02:58:12.979Z,1014.49
2023-05-14T02:59:12.998Z,1014.49
2023-05-14T03:00:13.104Z,1014.47
2023-05-14T03:01:12.979Z,1014.47
2023-05-14T03:02:13.006Z,1014.46
2023-05-14T03:03:12.938Z,1014.47
2023-05-14T03:04:12.916Z,1014.48
2023-05-14T03:05:12.916Z,1014.48
2023-05-14T03:06:13.029Z,1014.46
2023-05-14T03:07:12.833Z,1014.45
2023-05-14T03:08:12.874Z,1014.44
2023-05-14T03:09:12.870Z,1014.41
2023-05-14T03:10:12.850Z,1014.38
2023-05-14T03:11:12.847Z,1014.37
2023-05-14T03:12:12.842Z,1014.36
2023-05-14T03:13:12.825Z,1014.37
2023-05-14T03:14:12.812Z,1014.38
2023-05-14T03:15:12.806Z,1014.37
2023-05-14T03:16:12.806Z,1014.37
2023-05-14T03:17:13.032Z,1014.37
2023-05-14T03:18:12.779Z,1014.36
2023-05-14T03:19:12.797Z,1014.37
2023-05-14T03:20:12.704Z,1014.38
2023-05-14T03:21:12.696Z,1014.39
2023-05-14T03:22:12.676Z,1014.39
2023-05-14T03:23:12.828Z,1014.38
2023-05-14T03:24:12.667Z,1014.39
2023-05-14T03:25:12.650Z,1014.40
2023-05-14T03:26:12.631Z,1014.41
2023-05-14T03:27:12.624Z,1014.42
2023-05-14T03:28:12.607Z,1014.41
2023-05-14T03:29:12.722Z,1014.41
2023-05-14T03:30:12.650Z,1014.40
2023-05-14T03:31:12.656Z,1014.38
2023-05-14T03:32:12.624Z,1014.38
2023-05-14T03:33:12.617Z,1014.38
2023-05-14T03:34:12.620Z,1014.40
2023-05-14T03:35:18.902Z,1014.40
2023-05-14T03:36:12.575Z,1014.39
2023-05-14T03:37:12.575Z,1014.35
2023-05-14T03:38:12.522Z,1014.33
2023-05-14T03:39:12.499Z,1014.34
2023-05-14T03:40:12.662Z,1014.35
2023-05-14T03:41:12.524Z,1014.36
2023-05-14T03:42:12.511Z,1014.36
2023-05-14T03:43:12.507Z,1014.35
2023-05-14T03:44:12.456Z,1014.34
2023-05-14T03:45:12.436Z,1014.34
2023-05-14T03:46:12.569Z,1014.33
2023-05-14T03:47:12.417Z,1014.34
2023-05-14T03:48:12.515Z,1014.35
2023-05-14T03:49:12.478Z,1014.33
2023-05-14T03:50:12.391Z,1014.32
2023-05-14T03:51:12.400Z,1014.32
2023-05-14T03:52:12.366Z,1014.32
2023-05-14T03:53:12.354Z,1014.31
2023-05-14T03:54:12.346Z,1014.30
2023-05-14T03:55:12.333Z,1014.29
2023-05-14T03:56:12.322Z,1014.27
2023-05-14T03:57:12.553Z,1014.25
2023-05-14T03:58:12.349Z,1014.25
2023-05-14T03:59:12.338Z,1014.23
2023-05-14T04:00:12.326Z,1014.22
2023-05-14T04:01:12.323Z,1014.22
2023-05-14T04:02:12.345Z,1014.23
2023-05-14T04:03:12.494Z,1014.22
2023-05-14T04:04:12.383Z,1014.22
2023-05-14T04:05:12.257Z,1014.23
2023-05-14T04:06:12.219Z,1014.22
2023-05-14T04:07:12.215Z,1014.22
2023-05-14T04:08:12.207Z,1014.22
2023-05-14T04:09:12.312Z,1014.23
2023-05-14T04:10:12.169Z,1014.22
2023-05-14T04:11:12.163Z,1014.22
2023-05-14T04:12:12.155Z,1014.21
2023-05-14T04:13:12.143Z,1014.21
2023-05-14T04:14:12.127Z,1014.21
2023-05-14T04:15:12.160Z,1014.20
2023-05-14T04:16:12.126Z,1014.20
2023-05-14T04:17:12.106Z,1014.19
2023-05-14T04:18:12.132Z,1014.20
2023-05-14T04:19:12.176Z,1014.20
2023-05-14T04:20:12.200Z,1014.19
2023-05-14T04:21:12.056Z,1014.19
2023-05-14T04:22:12.038Z,1014.18
2023-05-14T04:23:12.028Z,1014.17
2023-05-14T04:24:12.034Z,1014.16
2023-05-14T04:25:12.024Z,1014.14
2023-05-14T04:26:12.151Z,1014.14
2023-05-14T04:27:12.012Z,1014.14
2023-05-14T04:28:11.971Z,1014.14
2023-05-14T04:29:11.977Z,1014.13
2023-05-14T04:30:11.962Z,1014.13
2023-05-14T04:31:11.993Z,1014.12
2023-05-14T04:32:12.101Z,1014.13
2023-05-14T04:33:11.932Z,1014.13
2023-05-14T04:34:11.914Z,1014.13
2023-05-14T04:35:18.396Z,1014.13
2023-05-14T04:36:11.882Z,1014.13
2023-05-14T04:37:11.896Z,1014.14
2023-05-14T04:38:11.878Z,1014.15
2023-05-14T04:39:11.872Z,1014.17
2023-05-14T04:40:11.856Z,1014.17
2023-05-14T04:41:11.850Z,1014.18
2023-05-14T04:42:11.820Z,1014.18
2023-05-14T04:43:11.821Z,1014.18
2023-05-14T04:44:11.803Z,1014.17
2023-05-14T04:45:11.804Z,1014.17
2023-05-14T04:46:11.836Z,1014.15
2023-05-14T04:47:11.779Z,1014.13
2023-05-14T04:48:11.908Z,1014.12
2023-05-14T04:49:11.751Z,1014.12
2023-05-14T04:50:11.740Z,1014.13
2023-05-14T04:51:11.737Z,1014.13
2023-05-14T04:52:11.724Z,1014.13
2023-05-14T04:53:11.715Z,1014.15
2023-05-14T04:54:11.865Z,1014.17
2023-05-14T04:55:11.698Z,1014.16
2023-05-14T04:56:11.686Z,1014.16
2023-05-14T04:57:11.669Z,1014.17
2023-05-14T04:58:11.666Z,1014.17
2023-05-14T04:59:11.653Z,1014.18
2023-05-14T05:00:11.948Z,1014.20
2023-05-14T05:01:11.702Z,1014.20
2023-05-14T05:02:11.615Z,1014.19
2023-05-14T05:03:11.671Z,1014.18
2023-05-14T05:04:11.675Z,1014.16
2023-05-14T05:05:11.588Z,1014.15
2023-05-14T05:06:11.579Z,1014.16
2023-05-14T05:07:11.570Z,1014.15
2023-05-14T05:08:11.579Z,1014.15
2023-05-14T05:09:11.549Z,1014.15
2023-05-14T05:10:11.547Z,1014.15
2023-05-14T05:11:11.688Z,1014.14
2023-05-14T05:12:11.516Z,1014.14
2023-05-14T05:13:11.494Z,1014.14
2023-05-14T05:14:11.499Z,1014.14
2023-05-14T05:15:11.482Z,1014.12
2023-05-14T05:16:11.515Z,1014.11
2023-05-14T05:17:11.625Z,1014.11
2023-05-14T05:18:11.461Z,1014.11
2023-05-14T05:19:11.527Z,1014.12
2023-05-14T05:20:11.454Z,1014.13
2023-05-14T05:21:11.422Z,1014.14
2023-05-14T05:22:11.429Z,1014.14
2023-05-14T05:23:11.405Z,1014.13
2023-05-14T05:24:11.392Z,1014.13
2023-05-14T05:25:11.392Z,1014.13
2023-05-14T05:26:11.369Z,1014.12
2023-05-14T05:27:11.350Z,1014.13
2023-05-14T05:28:11.501Z,1014.13
2023-05-14T05:29:11.335Z,1014.13
2023-05-14T05:30:11.334Z,1014.13
2023-05-14T05:31:11.346Z,1014.13
2023-05-14T05:32:11.326Z,1014.13
2023-05-14T05:33:11.332Z,1014.13
2023-05-14T05:34:11.453Z,1014.12
2023-05-14T05:35:11.287Z,1014.11
2023-05-14T05:36:11.263Z,1014.10
2023-05-14T05:37:11.257Z,1014.09
2023-05-14T05:38:11.255Z,1014.09
2023-05-14T05:39:11.233Z,1014.10
2023-05-14T05:40:11.390Z,1014.10
2023-05-14T05:41:11.202Z,1014.10
2023-05-14T05:42:11.204Z,1014.08
2023-05-14T05:43:11.188Z,1014.07
2023-05-14T05:44:11.181Z,1014.05
2023-05-14T05:45:11.175Z,1014.06
2023-05-14T05:46:11.206Z,1014.03
2023-05-14T05:47:11.145Z,1014.01
2023-05-14T05:48:11.145Z,1014.01
2023-05-14T05:49:11.128Z,1014.01
2023-05-14T05:50:11.183Z,1014.02
2023-05-14T05:51:11.273Z,1014.01
2023-05-14T05:52:11.095Z,1014.01
2023-05-14T05:53:11.088Z,1014.00
2023-05-14T05:54:11.077Z,1013.98
2023-05-14T05:55:11.066Z,1013.96
2023-05-14T05:56:11.068Z,1013.94
2023-05-14T05:57:11.199Z,1013.92
2023-05-14T05:58:11.044Z,1013.90
2023-05-14T05:59:11.016Z,1013.89
2023-05-14T06:00:11.011Z,1013.87
2023-05-14T06:01:11.000Z,1013.86
2023-05-14T06:02:11.043Z,1013.85
2023-05-14T06:03:11.082Z,1013.85
2023-05-14T06:04:10.973Z,1013.83
2023-05-14T06:05:11.013Z,1013.84
2023-05-14T06:06:10.950Z,1013.84
2023-05-14T06:07:10.932Z,1013.83
2023-05-14T06:08:10.962Z,1013.83
2023-05-14T06:09:10.921Z,1013.84
2023-05-14T06:10:10.918Z,1013.84
2023-05-14T06:11:10.902Z,1013.84
2023-05-14T06:12:10.894Z,1013.85
2023-05-14T06:13:10.872Z,1013.83
2023-05-14T06:14:10.924Z,1013.82
2023-05-14T06:15:10.855Z,1013.82
2023-05-14T06:16:10.862Z,1013.82
2023-05-14T06:17:10.842Z,1013.81
2023-05-14T06:18:10.877Z,1013.80
2023-05-14T06:19:10.988Z,1013.80
2023-05-14T06:20:10.929Z,1013.78
2023-05-14T06:21:10.785Z,1013.77
2023-05-14T06:22:10.781Z,1013.77
2023-05-14T06:23:10.776Z,1013.77
2023-05-14T06:24:10.773Z,1013.79
2023-05-14T06:25:10.749Z,1013.79
2023-05-14T06:26:10.880Z,1013.80
2023-05-14T06:27:10.726Z,1013.80
2023-05-14T06:28:10.713Z,1013.80
2023-05-14T06:29:10.706Z,1013.80
2023-05-14T06:30:10.697Z,1013.79
2023-05-14T06:31:10.688Z,1013.79
2023-05-14T06:32:10.735Z,1013.80
2023-05-14T06:33:10.768Z,1013.80
2023-05-14T06:34:10.667Z,1013.80
2023-05-14T06:35:10.640Z,1013.80
2023-05-14T06:36:10.641Z,1013.80
2023-05-14T06:37:10.799Z,1013.79
2023-05-14T06:38:10.618Z,1013.79
2023-05-14T06:39:10.598Z,1013.79
2023-05-14T06:40:10.599Z,1013.78
2023-05-14T06:41:10.583Z,1013.80
2023-05-14T06:42:10.575Z,1013.80
2023-05-14T06:43:10.624Z,1013.80
2023-05-14T06:44:10.545Z,1013.80
2023-05-14T06:45:10.555Z,1013.80
2023-05-14T06:46:10.523Z,1013.80
2023-05-14T06:47:10.521Z,1013.80
2023-05-14T06:48:10.618Z,1013.80
2023-05-14T06:49:10.751Z,1013.80
2023-05-14T06:50:10.995Z,1013.79
2023-05-14T06:51:10.473Z,1013.80
2023-05-14T06:52:10.472Z,1013.81
2023-05-14T06:53:10.477Z,1013.80
2023-05-14T06:54:10.450Z,1013.79
2023-05-14T06:55:10.437Z,1013.79
2023-05-14T06:56:10.428Z,1013.78
2023-05-14T06:57:10.411Z,1013.77
2023-05-14T06:58:10.399Z,1013.75
2023-05-14T06:59:10.382Z,1013.75
2023-05-14T07:00:10.556Z,1013.74
2023-05-14T07:01:10.417Z,1013.75
2023-05-14T07:02:10.362Z,1013.75
2023-05-14T07:03:10.421Z,1013.75
2023-05-14T07:04:10.382Z,1013.75
2023-05-14T07:05:10.324Z,1013.75
2023-05-14T07:06:12.496Z,1013.75
2023-05-14T07:07:10.300Z,1013.78
2023-05-14T07:08:10.299Z,1013.77
2023-05-14T07:09:10.282Z,1013.75
2023-05-14T07:10:10.284Z,1013.74
2023-05-14T07:11:10.271Z,1013.73
2023-05-14T07:12:10.265Z,1013.75
2023-05-14T07:13:10.254Z,1013.75
2023-05-14T07:14:10.240Z,1013.75
2023-05-14T07:15:10.219Z,1013.74
2023-05-14T07:16:10.218Z,1013.74
2023-05-14T07:17:10.395Z,1013.72
2023-05-14T07:18:10.222Z,1013.71
2023-05-14T07:19:10.310Z,1013.71
2023-05-14T07:20:10.191Z,1013.70
2023-05-14T07:21:10.174Z,1013.69
2023-05-14T07:22:10.161Z,1013.69
2023-05-14T07:23:10.335Z,1013.67
2023-05-14T07:24:10.144Z,1013.65
2023-05-14T07:25:10.115Z,1013.65
2023-05-14T07:26:10.115Z,1013.63
2023-05-14T07:27:10.098Z,1013.62
2023-05-14T07:28:10.086Z,1013.61
2023-05-14T07:29:10.244Z,1013.59
2023-05-14T07:30:10.064Z,1013.58
2023-05-14T07:31:10.067Z,1013.56
2023-05-14T07:32:10.061Z,1013.56
2023-05-14T07:33:10.094Z,1013.53
2023-05-14T07:34:10.024Z,1013.52
2023-05-14T07:35:10.021Z,1013.53
2023-05-14T07:36:10.005Z,1013.51
2023-05-14T07:37:09.996Z,1013.50
2023-05-14T07:38:09.995Z,1013.50
2023-05-14T07:39:09.965Z,1013.50
2023-05-14T07:40:10.147Z,1013.49
2023-05-14T07:41:09.949Z,1013.49
2023-05-14T07:42:09.948Z,1013.47
2023-05-14T07:43:09.923Z,1013.48
2023-05-14T07:44:09.920Z,1013.47
2023-05-14T07:45:09.910Z,1013.45
2023-05-14T07:46:10.058Z,1013.44
2023-05-14T07:47:09.911Z,1013.41
2023-05-14T07:48:10.030Z,1013.39
2023-05-14T07:49:09.881Z,1013.37
2023-05-14T07:50:09.869Z,1013.38
2023-05-14T07:51:09.844Z,1013.38
2023-05-14T07:52:10.003Z,1013.39
2023-05-14T07:53:09.829Z,1013.37
2023-05-14T07:54:09.817Z,1013.36
2023-05-14T07:55:09.806Z,1013.35
2023-05-14T07:56:09.790Z,1013.37
2023-05-14T07:57:09.788Z,1013.36
2023-05-14T07:58:09.786Z,1013.34
2023-05-14T07:59:09.766Z,1013.33
2023-05-14T08:00:09.755Z,1013.32
2023-05-14T08:01:09.736Z,1013.32
2023-05-14T08:02:09.817Z,1013.31
2023-05-14T08:03:09.926Z,1013.28
2023-05-14T08:04:09.778Z,1013.27
2023-05-14T08:05:09.698Z,1013.26
2023-05-14T08:06:09.692Z,1013.24
2023-05-14T08:07:09.723Z,1013.25
2023-05-14T08:08:09.668Z,1013.26
2023-05-14T08:09:09.951Z,1013.22
2023-05-14T08:10:09.639Z,1013.23
2023-05-14T08:11:09.679Z,1013.23
2023-05-14T08:12:09.631Z,1013.20
2023-05-14T08:13:09.631Z,1013.19
2023-05-14T08:14:09.614Z,1013.19
2023-05-14T08:15:09.636Z,1013.18
2023-05-14T08:16:09.592Z,1013.20
2023-05-14T08:17:09.738Z,1013.19
2023-05-14T08:18:09.638Z,1013.16
2023-05-14T08:19:09.596Z,1013.16
2023-05-14T08:20:09.543Z,1013.14
2023-05-14T08:21:09.538Z,1013.14
2023-05-14T08:22:09.523Z,1013.15
2023-05-14T08:23:09.507Z,1013.11
2023-05-14T08:24:09.507Z,1013.12
2023-05-14T08:25:09.493Z,1013.14
2023-05-14T08:26:09.657Z,1013.13
2023-05-14T08:27:09.469Z,1013.14
2023-05-14T08:28:09.465Z,1013.10
2023-05-14T08:29:11.152Z,1013.14
2023-05-14T08:30:09.443Z,1013.11
2023-05-14T08:31:09.496Z,1013.08
2023-05-14T08:32:22.196Z,1013.08
2023-05-14T08:33:09.478Z,1013.07
2023-05-14T08:34:09.414Z,1013.08
2023-05-14T08:35:09.381Z,1013.11
2023-05-14T08:36:09.386Z,1013.12
2023-05-14T08:37:09.372Z,1013.09
2023-05-14T08:38:09.361Z,1013.07
2023-05-14T08:39:09.345Z,1013.07
2023-05-14T08:40:09.344Z,1013.08
2023-05-14T08:41:09.322Z,1013.10
2023-05-14T08:42:09.324Z,1013.11
2023-05-14T08:43:09.440Z,1013.08
2023-05-14T08:44:09.297Z,1013.11
2023-05-14T08:45:09.278Z,1013.13
2023-05-14T08:46:09.274Z,1013.11
2023-05-14T08:47:09.254Z,1013.13
2023-05-14T08:48:09.354Z,1013.14
2023-05-14T08:49:09.339Z,1013.15
2023-05-14T08:50:09.231Z,1013.14
2023-05-14T08:51:09.219Z,1013.14
2023-05-14T08:52:09.221Z,1013.14
2023-05-14T08:53:09.195Z,1013.16
2023-05-14T08:54:09.341Z,1013.10
2023-05-14T08:55:09.172Z,1013.12
2023-05-14T08:56:09.172Z,1013.09
2023-05-14T08:57:09.164Z,1013.08
2023-05-14T08:58:09.147Z,1013.06
2023-05-14T08:59:09.133Z,1013.05
2023-05-14T09:00:09.314Z,1013.07
2023-05-14T09:01:09.105Z,1013.10
2023-05-14T09:02:09.183Z,1013.11
2023-05-14T09:03:09.143Z,1013.10
2023-05-14T09:04:09.114Z,1013.11
2023-05-14T09:05:09.074Z,1013.09
2023-05-14T09:06:09.306Z,1013.10
2023-05-14T09:07:09.058Z,1013.06
2023-05-14T09:08:09.030Z,1013.07
2023-05-14T09:09:09.042Z,1013.09
2023-05-14T09:10:09.030Z,1013.08
2023-05-14T09:11:09.015Z,1013.07
2023-05-14T09:12:09.293Z,1013.06
2023-05-14T09:13:08.990Z,1013.06
2023-05-14T09:14:08.977Z,1013.07
2023-05-14T09:15:08.963Z,1013.05
2023-05-14T09:16:08.990Z,1013.01
2023-05-14T09:17:08.947Z,1013.04
2023-05-14T09:18:09.116Z,1013.01
2023-05-14T09:19:08.995Z,1013.02
2023-05-14T09:20:08.913Z,1013.04
2023-05-14T09:21:08.910Z,1013.04
2023-05-14T09:22:08.892Z,1013.03
2023-05-14T09:23:08.882Z,1013.00
2023-05-14T09:24:08.877Z,1012.99
2023-05-14T09:25:08.881Z,1012.99
2023-05-14T09:26:08.853Z,1013.03
2023-05-14T09:27:08.842Z,1012.96
2023-05-14T09:28:08.857Z,1012.98
2023-05-14T09:29:08.953Z,1012.96
2023-05-14T09:30:08.831Z,1012.95
2023-05-14T09:31:08.821Z,1012.96
2023-05-14T09:32:08.819Z,1012.92
2023-05-14T09:33:08.792Z,1012.89
2023-05-14T09:34:08.767Z,1012.89
2023-05-14T09:35:08.793Z,1012.90
2023-05-14T09:36:08.747Z,1012.88
2023-05-14T09:37:08.740Z,1012.86
2023-05-14T09:38:08.736Z,1012.85
2023-05-14T09:39:08.718Z,1012.87
2023-05-14T09:40:08.699Z,1012.86
2023-05-14T09:41:08.845Z,1012.89
2023-05-14T09:42:08.680Z,1012.83
2023-05-14T09:43:08.673Z,1012.86
2023-05-14T09:44:08.680Z,1012.87
2023-05-14T09:45:08.681Z,1012.83
2023-05-14T09:46:08.643Z,1012.80
2023-05-14T09:47:08.697Z,1012.74
2023-05-14T09:48:08.715Z,1012.85
2023-05-14T09:49:08.618Z,1012.85
2023-05-14T09:50:08.605Z,1012.84
2023-05-14T09:51:08.593Z,1012.85
2023-05-14T09:52:08.736Z,1012.83
2023-05-14T09:53:08.577Z,1012.83
2023-05-14T09:54:08.556Z,1012.80
2023-05-14T09:55:08.555Z,1012.81
2023-05-14T09:56:08.530Z,1012.81
2023-05-14T09:57:08.526Z,1012.82
2023-05-14T09:58:08.606Z,1012.80
2023-05-14T09:59:08.507Z,1012.83
2023-05-14T10:00:08.494Z,1012.83
2023-05-14T10:01:08.514Z,1012.82
2023-05-14T10:02:08.474Z,1012.79
2023-05-14T10:03:08.537Z,1012.77
2023-05-14T10:04:08.625Z,1012.76
2023-05-14T10:05:08.479Z,1012.75
2023-05-14T10:06:08.432Z,1012.73
2023-05-14T10:07:08.449Z,1012.72
2023-05-14T10:08:08.419Z,1012.69
2023-05-14T10:09:08.406Z,1012.68
2023-05-14T10:10:08.392Z,1012.69
2023-05-14T10:11:08.389Z,1012.67
2023-05-14T10:12:08.381Z,1012.65
2023-05-14T10:13:08.376Z,1012.64
2023-05-14T10:14:08.374Z,1012.64
2023-05-14T10:15:08.641Z,1012.62
2023-05-14T10:16:08.343Z,1012.60
2023-05-14T10:17:08.345Z,1012.59
2023-05-14T10:18:08.325Z,1012.62
2023-05-14T10:19:08.353Z,1012.65
2023-05-14T10:20:08.295Z,1012.63
2023-05-14T10:21:08.285Z,1012.57
2023-05-14T10:22:08.269Z,1012.52
2023-05-14T10:23:08.274Z,1012.55
2023-05-14T10:24:08.249Z,1012.56
2023-05-14T10:25:08.239Z,1012.55
2023-05-14T10:26:08.272Z,1012.56
2023-05-14T10:27:08.225Z,1012.54
2023-05-14T10:28:08.202Z,1012.56
2023-05-14T10:29:08.199Z,1012.56
2023-05-14T10:30:08.194Z,1012.55
2023-05-14T10:31:08.222Z,1012.55
2023-05-14T10:32:08.317Z,1012.54
2023-05-14T10:33:08.227Z,1012.49
2023-05-14T10:34:08.137Z,1012.46
2023-05-14T10:35:08.139Z,1012.44
2023-05-14T10:36:08.143Z,1012.47
2023-05-14T10:37:08.118Z,1012.45
2023-05-14T10:38:08.264Z,1012.42
2023-05-14T10:39:08.083Z,1012.42
2023-05-14T10:40:08.083Z,1012.40
2023-05-14T10:41:08.105Z,1012.39
2023-05-14T10:42:08.064Z,1012.40
2023-05-14T10:43:08.069Z,1012.46
2023-05-14T10:44:08.081Z,1012.43
2023-05-14T10:45:08.036Z,1012.37
2023-05-14T10:46:08.072Z,1012.37
2023-05-14T10:47:08.022Z,1012.36
2023-05-14T10:48:08.013Z,1012.38
2023-05-14T10:49:08.143Z,1012.32
2023-05-14T10:50:07.984Z,1012.38
2023-05-14T10:51:07.990Z,1012.37
2023-05-14T10:52:07.947Z,1012.35
2023-05-14T10:53:07.938Z,1012.34
2023-05-14T10:54:07.936Z,1012.36
2023-05-14T10:55:08.128Z,1012.33
2023-05-14T10:56:07.952Z,1012.37
2023-05-14T10:57:07.909Z,1012.30
2023-05-14T10:58:07.896Z,1012.30
2023-05-14T10:59:07.884Z,1012.25
2023-05-14T11:00:07.878Z,1012.27
2023-05-14T11:01:08.031Z,1012.24
2023-05-14T11:02:07.941Z,1012.27
2023-05-14T11:03:07.923Z,1012.25
2023-05-14T11:04:07.864Z,1012.21
2023-05-14T11:05:07.832Z,1012.19
2023-05-14T11:06:07.825Z,1012.20
2023-05-14T11:07:07.809Z,1012.23
2023-05-14T11:08:07.807Z,1012.22
2023-05-14T11:09:07.778Z,1012.19
2023-05-14T11:10:07.763Z,1012.16
2023-05-14T11:11:07.754Z,1012.12
2023-05-14T11:12:07.742Z,1012.12
2023-05-14T11:13:07.739Z,1012.14
2023-05-14T11:14:10.126Z,1012.14
2023-05-14T11:15:07.722Z,1012.13
2023-05-14T11:17:08.120Z,1012.14
2023-05-14T11:18:07.706Z,1012.16
2023-05-14T11:19:07.725Z,1012.13
2023-05-14T11:20:07.668Z,1012.09
2023-05-14T11:21:07.662Z,1012.10
2023-05-14T11:22:07.649Z,1012.10
2023-05-14T11:23:07.806Z,1012.04
2023-05-14T11:24:07.639Z,1012.01
2023-05-14T11:25:07.611Z,1012.06
2023-05-14T11:26:07.624Z,1012.06
2023-05-14T11:27:07.590Z,1012.09
2023-05-14T11:28:07.573Z,1012.03
2023-05-14T11:29:07.724Z,1012.02
2023-05-14T11:30:07.557Z,1012.01
2023-05-14T11:31:07.559Z,1011.96
2023-05-14T11:32:07.567Z,1011.96
2023-05-14T11:33:07.588Z,1011.92
2023-05-14T11:34:07.515Z,1011.88
2023-05-14T11:35:07.510Z,1011.88
2023-05-14T11:36:07.497Z,1011.90
2023-05-14T11:37:07.486Z,1011.88
2023-05-14T11:38:09.250Z,1011.86
2023-05-14T11:39:07.467Z,1011.84
2023-05-14T11:40:07.620Z,1011.83
2023-05-14T11:41:07.459Z,1011.82
2023-05-14T11:42:07.428Z,1011.82
2023-05-14T11:43:07.432Z,1011.89
2023-05-14T11:44:09.054Z,1011.85
2023-05-14T11:45:07.418Z,1011.88
2023-05-14T11:46:07.588Z,1011.83
2023-05-14T11:47:07.406Z,1011.78
2023-05-14T11:48:07.397Z,1011.80
2023-05-14T11:49:07.374Z,1011.76
2023-05-14T11:50:09.266Z,1011.76
2023-05-14T11:51:07.334Z,1011.74
2023-05-14T11:52:07.488Z,1011.74
2023-05-14T11:53:07.358Z,1011.72
2023-05-14T11:54:07.308Z,1011.74
2023-05-14T11:55:07.300Z,1011.70
2023-05-14T11:56:09.672Z,1011.68
2023-05-14T11:57:07.305Z,1011.67
2023-05-14T11:58:07.283Z,1011.69
2023-05-14T11:59:07.280Z,1011.66
2023-05-14T12:00:07.241Z,1011.67
2023-05-14T12:01:07.242Z,1011.65
2023-05-14T12:02:07.255Z,1011.66
2023-05-14T12:03:07.456Z,1011.67
2023-05-14T12:04:07.325Z,1011.64
2023-05-14T12:05:07.224Z,1011.59
2023-05-14T12:06:07.187Z,1011.58
2023-05-14T12:07:07.185Z,1011.50